sensor_id;sensor_type;location;lat;lon;timestamp;temperature;humidity
39019;DHT22;24786;51.984;5.872;2023-05-10T00:01:48;13.40;99.90
39019;DHT22;24786;51.984;5.872;2023-05-10T00:04:14;13.50;99.90
39019;DHT22;24786;51.984;5.872;2023-05-10T00:06:39;13.50;99.90
39019;DHT22;24786;51.984;5.872;2023-05-10T00:09:05;13.50;99.90
39019;DHT22;24786;51.984;5.872;2023-05-10T00:11:30;13.50;99.90
39019;DHT22;24786;51.984;5.872;2023-05-10T00:13:56;13.50;99.90
39019;DHT22;24786;51.984;5.872;2023-05-10T00:16:21;13.50;99.90
39019;DHT22;24786;51.984;5.872;2023-05-10T00:18:47;13.50;99.90
39019;DHT22;24786;51.984;5.872;2023-05-10T00:21:12;13.50;99.90
39019;DHT22;24786;51.984;5.872;2023-05-10T00:23:37;13.50;99.90
39019;DHT22;24786;51.984;5.872;2023-05-10T00:26:03;13.50;99.90
39019;DHT22;24786;51.984;5.872;2023-05-10T00:28:28;13.50;99.90
39019;DHT22;24786;51.984;5.872;2023-05-10T00:30:54;13.50;99.90
39019;DHT22;24786;51.984;5.872;2023-05-10T00:33:20;13.50;99.90
39019;DHT22;24786;51.984;5.872;2023-05-10T00:35:46;13.50;99.90
39019;DHT22;24786;51.984;5.872;2023-05-10T00:38:11;13.50;99.90
39019;DHT22;24786;51.984;5.872;2023-05-10T00:40:37;13.40;99.90
39019;DHT22;24786;51.984;5.872;2023-05-10T00:43:02;13.50;99.90
39019;DHT22;24786;51.984;5.872;2023-05-10T00:45:29;13.60;99.90
39019;DHT22;24786;51.984;5.872;2023-05-10T00:47:54;13.60;99.90
39019;DHT22;24786;51.984;5.872;2023-05-10T00:50:24;13.50;99.90
39019;DHT22;24786;51.984;5.872;2023-05-10T00:52:49;13.60;99.90
39019;DHT22;24786;51.984;5.872;2023-05-10T00:55:15;13.60;99.90
39019;DHT22;24786;51.984;5.872;2023-05-10T00:57:40;13.60;99.90
39019;DHT22;24786;51.984;5.872;2023-05-10T01:00:06;13.60;99.90
39019;DHT22;24786;51.984;5.872;2023-05-10T01:02:33;13.60;99.90
39019;DHT22;24786;51.984;5.872;2023-05-10T01:04:58;13.50;99.90
39019;DHT22;24786;51.984;5.872;2023-05-10T01:07:26;13.60;99.90
39019;DHT22;24786;51.984;5.872;2023-05-10T01:09:52;13.60;99.90
39019;DHT22;24786;51.984;5.872;2023-05-10T01:12:17;13.60;99.90
39019;DHT22;24786;51.984;5.872;2023-05-10T01:14:43;13.60;99.90
39019;DHT22;24786;51.984;5.872;2023-05-10T01:17:08;13.60;99.90
39019;DHT22;24786;51.984;5.872;2023-05-10T01:19:36;13.60;99.90
39019;DHT22;24786;51.984;5.872;2023-05-10T01:37:39;13.60;99.90
39019;DHT22;24786;51.984;5.872;2023-05-10T01:40:51;13.60;99.90
39019;DHT22;24786;51.984;5.872;2023-05-10T01:42:56;13.60;99.90
39019;DHT22;24786;51.984;5.872;2023-05-10T01:45:36;13.60;99.90
39019;DHT22;24786;51.984;5.872;2023-05-10T01:50:31;13.60;99.90
39019;DHT22;24786;51.984;5.872;2023-05-10T01:52:58;13.60;99.90
39019;DHT22;24786;51.984;5.872;2023-05-10T01:55:27;13.60;99.90
39019;DHT22;24786;51.984;5.872;2023-05-10T01:58:05;13.60;99.90
39019;DHT22;24786;51.984;5.872;2023-05-10T02:00:31;13.60;99.90
39019;DHT22;24786;51.984;5.872;2023-05-10T02:02:59;13.60;99.90
39019;DHT22;24786;51.984;5.872;2023-05-10T02:05:25;13.60;99.90
39019;DHT22;24786;51.984;5.872;2023-05-10T02:07:52;13.60;99.90
39019;DHT22;24786;51.984;5.872;2023-05-10T02:10:18;13.60;99.90
39019;DHT22;24786;51.984;5.872;2023-05-10T02:12:44;13.60;99.90
39019;DHT22;24786;51.984;5.872;2023-05-10T02:15:11;13.60;99.90
39019;DHT22;24786;51.984;5.872;2023-05-10T02:17:38;13.60;99.90
39019;DHT22;24786;51.984;5.872;2023-05-10T02:20:04;13.60;99.90
39019;DHT22;24786;51.984;5.872;2023-05-10T02:22:31;13.60;99.90
39019;DHT22;24786;51.984;5.872;2023-05-10T02:24:57;13.60;99.90
39019;DHT22;24786;51.984;5.872;2023-05-10T02:27:23;13.60;99.90
39019;DHT22;24786;51.984;5.872;2023-05-10T02:29:49;13.60;99.90
39019;DHT22;24786;51.984;5.872;2023-05-10T02:32:16;13.60;99.90
39019;DHT22;24786;51.984;5.872;2023-05-10T02:34:42;13.60;99.90
39019;DHT22;24786;51.984;5.872;2023-05-10T02:37:12;13.60;99.90
39019;DHT22;24786;51.984;5.872;2023-05-10T02:39:38;13.60;99.90
39019;DHT22;24786;51.984;5.872;2023-05-10T02:42:10;13.60;99.90
39019;DHT22;24786;51.984;5.872;2023-05-10T02:44:37;13.60;99.90
39019;DHT22;24786;51.984;5.872;2023-05-10T02:47:04;13.60;99.90
39019;DHT22;24786;51.984;5.872;2023-05-10T02:49:29;13.60;99.90
39019;DHT22;24786;51.984;5.872;2023-05-10T02:51:56;13.60;99.90
39019;DHT22;24786;51.984;5.872;2023-05-10T02:54:24;13.60;99.90
39019;DHT22;24786;51.984;5.872;2023-05-10T02:56:58;13.60;99.90
39019;DHT22;24786;51.984;5.872;2023-05-10T02:59:26;13.60;99.90
39019;DHT22;24786;51.984;5.872;2023-05-10T03:01:52;13.60;99.90
39019;DHT22;24786;51.984;5.872;2023-05-10T03:04:18;13.60;99.90
39019;DHT22;24786;51.984;5.872;2023-05-10T03:06:43;13.60;99.90
39019;DHT22;24786;51.984;5.872;2023-05-10T03:09:09;13.60;99.90
39019;DHT22;24786;51.984;5.872;2023-05-10T03:17:05;13.60;99.90
39019;DHT22;24786;51.984;5.872;2023-05-10T03:19:34;13.50;99.90
39019;DHT22;24786;51.984;5.872;2023-05-10T03:22:03;13.50;99.90
39019;DHT22;24786;51.984;5.872;2023-05-10T03:24:30;13.50;99.90
39019;DHT22;24786;51.984;5.872;2023-05-10T03:26:56;13.50;99.90
39019;DHT22;24786;51.984;5.872;2023-05-10T03:29:25;13.50;99.90
39019;DHT22;24786;51.984;5.872;2023-05-10T03:31:51;13.40;99.90
39019;DHT22;24786;51.984;5.872;2023-05-10T03:34:16;13.50;99.90
39019;DHT22;24786;51.984;5.872;2023-05-10T03:36:42;13.40;99.90
39019;DHT22;24786;51.984;5.872;2023-05-10T03:39:08;13.40;99.90
39019;DHT22;24786;51.984;5.872;2023-05-10T03:41:34;13.40;99.90
39019;DHT22;24786;51.984;5.872;2023-05-10T03:43:59;13.40;99.90
39019;DHT22;24786;51.984;5.872;2023-05-10T03:46:25;13.50;99.90
39019;DHT22;24786;51.984;5.872;2023-05-10T03:48:50;13.40;99.90
39019;DHT22;24786;51.984;5.872;2023-05-10T03:51:16;13.40;99.90
39019;DHT22;24786;51.984;5.872;2023-05-10T03:53:41;13.40;99.90
39019;DHT22;24786;51.984;5.872;2023-05-10T03:56:07;13.30;99.90
39019;DHT22;24786;51.984;5.872;2023-05-10T03:58:32;13.30;99.90
39019;DHT22;24786;51.984;5.872;2023-05-10T04:00:57;13.20;99.90
39019;DHT22;24786;51.984;5.872;2023-05-10T04:03:23;13.30;99.90
39019;DHT22;24786;51.984;5.872;2023-05-10T04:05:58;13.30;99.90
39019;DHT22;24786;51.984;5.872;2023-05-10T04:08:23;13.20;99.90
39019;DHT22;24786;51.984;5.872;2023-05-10T04:10:49;13.20;99.90
39019;DHT22;24786;51.984;5.872;2023-05-10T04:13:14;13.20;99.90
39019;DHT22;24786;51.984;5.872;2023-05-10T04:15:39;13.10;99.90
39019;DHT22;24786;51.984;5.872;2023-05-10T04:18:05;13.10;99.90
39019;DHT22;24786;51.984;5.872;2023-05-10T04:20:31;13.10;99.90
39019;DHT22;24786;51.984;5.872;2023-05-10T04:22:57;13.10;99.90
39019;DHT22;24786;51.984;5.872;2023-05-10T04:25:23;13.10;99.90
39019;DHT22;24786;51.984;5.872;2023-05-10T04:27:49;13.20;99.90
39019;DHT22;24786;51.984;5.872;2023-05-10T04:30:14;13.10;99.90
39019;DHT22;24786;51.984;5.872;2023-05-10T04:32:39;13.10;99.90
39019;DHT22;24786;51.984;5.872;2023-05-10T04:35:05;13.10;99.90
39019;DHT22;24786;51.984;5.872;2023-05-10T04:37:31;13.10;99.90
39019;DHT22;24786;51.984;5.872;2023-05-10T04:39:56;13.10;99.90
39019;DHT22;24786;51.984;5.872;2023-05-10T04:42:22;13.10;99.90
39019;DHT22;24786;51.984;5.872;2023-05-10T04:44:47;13.10;99.90
39019;DHT22;24786;51.984;5.872;2023-05-10T04:47:12;13.10;99.90
39019;DHT22;24786;51.984;5.872;2023-05-10T04:49:38;13.10;99.90
39019;DHT22;24786;51.984;5.872;2023-05-10T04:52:04;13.10;99.90
39019;DHT22;24786;51.984;5.872;2023-05-10T04:54:29;13.10;99.90
39019;DHT22;24786;51.984;5.872;2023-05-10T04:56:55;13.10;99.90
39019;DHT22;24786;51.984;5.872;2023-05-10T04:59:20;13.10;99.90
39019;DHT22;24786;51.984;5.872;2023-05-10T05:01:45;13.10;99.90
39019;DHT22;24786;51.984;5.872;2023-05-10T05:04:11;13.10;99.90
39019;DHT22;24786;51.984;5.872;2023-05-10T05:06:36;13.10;99.90
39019;DHT22;24786;51.984;5.872;2023-05-10T05:09:02;13.20;99.90
39019;DHT22;24786;51.984;5.872;2023-05-10T05:11:28;13.20;99.90
39019;DHT22;24786;51.984;5.872;2023-05-10T05:13:53;13.20;99.90
39019;DHT22;24786;51.984;5.872;2023-05-10T05:16:19;13.20;99.90
39019;DHT22;24786;51.984;5.872;2023-05-10T05:18:44;13.20;99.90
39019;DHT22;24786;51.984;5.872;2023-05-10T05:21:13;13.20;99.90
39019;DHT22;24786;51.984;5.872;2023-05-10T05:23:39;13.20;99.90
39019;DHT22;24786;51.984;5.872;2023-05-10T05:26:04;13.20;99.90
39019;DHT22;24786;51.984;5.872;2023-05-10T05:28:30;13.20;99.90
39019;DHT22;24786;51.984;5.872;2023-05-10T05:30:58;13.20;99.90
39019;DHT22;24786;51.984;5.872;2023-05-10T05:33:23;13.20;99.90
39019;DHT22;24786;51.984;5.872;2023-05-10T05:35:50;13.30;99.90
39019;DHT22;24786;51.984;5.872;2023-05-10T05:38:16;13.30;99.90
39019;DHT22;24786;51.984;5.872;2023-05-10T05:40:42;13.40;99.90
39019;DHT22;24786;51.984;5.872;2023-05-10T05:43:10;13.30;99.90
39019;DHT22;24786;51.984;5.872;2023-05-10T05:45:36;13.30;99.90
39019;DHT22;24786;51.984;5.872;2023-05-10T05:48:01;13.30;99.90
39019;DHT22;24786;51.984;5.872;2023-05-10T05:50:27;13.40;99.90
39019;DHT22;24786;51.984;5.872;2023-05-10T05:52:52;13.40;99.90
39019;DHT22;24786;51.984;5.872;2023-05-10T05:55:18;13.40;99.90
39019;DHT22;24786;51.984;5.872;2023-05-10T05:57:43;13.50;99.90
39019;DHT22;24786;51.984;5.872;2023-05-10T06:00:09;13.50;99.90
39019;DHT22;24786;51.984;5.872;2023-05-10T06:02:34;13.50;99.90
39019;DHT22;24786;51.984;5.872;2023-05-10T06:05:00;13.50;99.90
39019;DHT22;24786;51.984;5.872;2023-05-10T06:07:25;13.50;99.90
39019;DHT22;24786;51.984;5.872;2023-05-10T06:09:51;13.50;99.90
39019;DHT22;24786;51.984;5.872;2023-05-10T06:12:16;13.50;99.90
39019;DHT22;24786;51.984;5.872;2023-05-10T06:14:42;13.50;99.90
39019;DHT22;24786;51.984;5.872;2023-05-10T06:17:07;13.50;99.90
39019;DHT22;24786;51.984;5.872;2023-05-10T06:19:33;13.50;99.90
39019;DHT22;24786;51.984;5.872;2023-05-10T06:21:58;13.60;99.90
39019;DHT22;24786;51.984;5.872;2023-05-10T06:24:24;13.50;99.90
39019;DHT22;24786;51.984;5.872;2023-05-10T06:26:49;13.50;99.90
39019;DHT22;24786;51.984;5.872;2023-05-10T06:29:15;13.40;99.90
39019;DHT22;24786;51.984;5.872;2023-05-10T06:31:41;13.50;99.90
39019;DHT22;24786;51.984;5.872;2023-05-10T06:34:06;13.50;99.90
39019;DHT22;24786;51.984;5.872;2023-05-10T06:36:33;13.50;99.90
39019;DHT22;24786;51.984;5.872;2023-05-10T06:38:58;13.50;99.90
39019;DHT22;24786;51.984;5.872;2023-05-10T06:41:24;13.40;99.90
39019;DHT22;24786;51.984;5.872;2023-05-10T06:43:49;13.40;99.90
39019;DHT22;24786;51.984;5.872;2023-05-10T06:46:15;13.40;99.90
39019;DHT22;24786;51.984;5.872;2023-05-10T06:48:40;13.40;99.90
39019;DHT22;24786;51.984;5.872;2023-05-10T06:51:06;13.40;99.90
39019;DHT22;24786;51.984;5.872;2023-05-10T06:53:31;13.40;99.90
39019;DHT22;24786;51.984;5.872;2023-05-10T06:55:57;13.50;99.90
39019;DHT22;24786;51.984;5.872;2023-05-10T06:58:23;13.50;99.90
39019;DHT22;24786;51.984;5.872;2023-05-10T07:00:48;13.60;99.90
39019;DHT22;24786;51.984;5.872;2023-05-10T07:03:14;13.50;99.90
39019;DHT22;24786;51.984;5.872;2023-05-10T07:05:39;13.60;99.90
39019;DHT22;24786;51.984;5.872;2023-05-10T07:08:04;13.50;99.90
39019;DHT22;24786;51.984;5.872;2023-05-10T07:10:30;13.50;99.90
39019;DHT22;24786;51.984;5.872;2023-05-10T07:12:55;13.60;99.90
39019;DHT22;24786;51.984;5.872;2023-05-10T07:15:21;13.60;99.90
39019;DHT22;24786;51.984;5.872;2023-05-10T07:17:46;13.70;99.90
39019;DHT22;24786;51.984;5.872;2023-05-10T07:20:12;13.70;99.90
39019;DHT22;24786;51.984;5.872;2023-05-10T07:22:37;13.70;99.90
39019;DHT22;24786;51.984;5.872;2023-05-10T07:25:03;13.70;99.90
39019;DHT22;24786;51.984;5.872;2023-05-10T07:27:29;13.70;99.90
39019;DHT22;24786;51.984;5.872;2023-05-10T07:29:54;13.70;99.90
39019;DHT22;24786;51.984;5.872;2023-05-10T07:32:21;13.70;99.90
39019;DHT22;24786;51.984;5.872;2023-05-10T07:34:47;13.70;99.90
39019;DHT22;24786;51.984;5.872;2023-05-10T07:37:12;13.80;99.90
39019;DHT22;24786;51.984;5.872;2023-05-10T07:39:38;13.80;99.90
39019;DHT22;24786;51.984;5.872;2023-05-10T07:42:03;13.90;99.90
39019;DHT22;24786;51.984;5.872;2023-05-10T07:44:29;14.00;99.90
39019;DHT22;24786;51.984;5.872;2023-05-10T07:46:54;14.00;99.90
39019;DHT22;24786;51.984;5.872;2023-05-10T07:49:20;14.00;99.90
39019;DHT22;24786;51.984;5.872;2023-05-10T07:51:46;14.10;99.90
39019;DHT22;24786;51.984;5.872;2023-05-10T07:54:12;14.10;99.90
39019;DHT22;24786;51.984;5.872;2023-05-10T07:56:37;14.10;99.90
39019;DHT22;24786;51.984;5.872;2023-05-10T07:59:04;14.10;99.90
39019;DHT22;24786;51.984;5.872;2023-05-10T08:01:32;14.10;99.90
39019;DHT22;24786;51.984;5.872;2023-05-10T08:03:58;14.10;99.90
39019;DHT22;24786;51.984;5.872;2023-05-10T08:06:24;14.10;99.90
39019;DHT22;24786;51.984;5.872;2023-05-10T08:08:51;14.20;99.90
39019;DHT22;24786;51.984;5.872;2023-05-10T08:11:19;14.20;99.90
39019;DHT22;24786;51.984;5.872;2023-05-10T08:13:45;14.20;99.90
39019;DHT22;24786;51.984;5.872;2023-05-10T08:16:11;14.20;99.90
39019;DHT22;24786;51.984;5.872;2023-05-10T08:18:37;14.20;99.90
39019;DHT22;24786;51.984;5.872;2023-05-10T08:21:02;14.30;99.90
39019;DHT22;24786;51.984;5.872;2023-05-10T08:23:28;14.40;99.90
39019;DHT22;24786;51.984;5.872;2023-05-10T08:25:53;14.50;99.90
39019;DHT22;24786;51.984;5.872;2023-05-10T08:28:19;14.40;99.90
39019;DHT22;24786;51.984;5.872;2023-05-10T08:30:44;14.40;99.90
39019;DHT22;24786;51.984;5.872;2023-05-10T08:33:10;14.50;99.90
39019;DHT22;24786;51.984;5.872;2023-05-10T08:35:35;14.40;99.90
39019;DHT22;24786;51.984;5.872;2023-05-10T08:38:01;14.40;99.90
39019;DHT22;24786;51.984;5.872;2023-05-10T08:40:26;14.30;99.90
39019;DHT22;24786;51.984;5.872;2023-05-10T08:42:59;14.30;99.90
39019;DHT22;24786;51.984;5.872;2023-05-10T08:45:25;14.30;99.90
39019;DHT22;24786;51.984;5.872;2023-05-10T08:47:53;14.30;99.90
39019;DHT22;24786;51.984;5.872;2023-05-10T08:50:19;14.40;99.90
39019;DHT22;24786;51.984;5.872;2023-05-10T08:52:45;14.40;99.90
39019;DHT22;24786;51.984;5.872;2023-05-10T08:55:13;14.40;99.90
39019;DHT22;24786;51.984;5.872;2023-05-10T08:57:38;14.50;99.90
39019;DHT22;24786;51.984;5.872;2023-05-10T09:00:04;14.50;99.90
39019;DHT22;24786;51.984;5.872;2023-05-10T09:02:29;14.60;99.90
39019;DHT22;24786;51.984;5.872;2023-05-10T09:04:55;14.70;99.90
39019;DHT22;24786;51.984;5.872;2023-05-10T09:07:20;14.80;99.90
39019;DHT22;24786;51.984;5.872;2023-05-10T09:09:46;14.90;99.90
39019;DHT22;24786;51.984;5.872;2023-05-10T09:12:12;15.00;99.90
39019;DHT22;24786;51.984;5.872;2023-05-10T09:14:38;15.00;99.90
39019;DHT22;24786;51.984;5.872;2023-05-10T09:17:03;15.00;99.90
39019;DHT22;24786;51.984;5.872;2023-05-10T09:19:29;15.00;99.90
39019;DHT22;24786;51.984;5.872;2023-05-10T09:21:55;15.10;99.90
39019;DHT22;24786;51.984;5.872;2023-05-10T09:24:22;15.20;99.90
39019;DHT22;24786;51.984;5.872;2023-05-10T09:26:50;15.20;99.90
39019;DHT22;24786;51.984;5.872;2023-05-10T09:29:15;15.30;99.90
39019;DHT22;24786;51.984;5.872;2023-05-10T09:31:44;15.20;99.90
39019;DHT22;24786;51.984;5.872;2023-05-10T09:34:20;15.30;99.90
39019;DHT22;24786;51.984;5.872;2023-05-10T09:36:56;15.30;99.90
39019;DHT22;24786;51.984;5.872;2023-05-10T09:39:31;15.20;99.90
39019;DHT22;24786;51.984;5.872;2023-05-10T09:41:58;15.20;99.90
39019;DHT22;24786;51.984;5.872;2023-05-10T09:44:23;15.10;99.90
39019;DHT22;24786;51.984;5.872;2023-05-10T09:46:50;15.10;99.90
39019;DHT22;24786;51.984;5.872;2023-05-10T09:49:18;15.00;99.90
39019;DHT22;24786;51.984;5.872;2023-05-10T09:51:43;15.10;99.90
39019;DHT22;24786;51.984;5.872;2023-05-10T09:54:10;15.20;99.90
39019;DHT22;24786;51.984;5.872;2023-05-10T09:56:36;15.10;99.90
39019;DHT22;24786;51.984;5.872;2023-05-10T09:59:05;15.10;99.90
39019;DHT22;24786;51.984;5.872;2023-05-10T10:01:31;15.10;99.90
39019;DHT22;24786;51.984;5.872;2023-05-10T10:03:56;15.10;99.90
39019;DHT22;24786;51.984;5.872;2023-05-10T10:06:23;15.00;99.90
39019;DHT22;24786;51.984;5.872;2023-05-10T10:08:49;15.10;99.90
39019;DHT22;24786;51.984;5.872;2023-05-10T10:11:15;15.10;99.90
39019;DHT22;24786;51.984;5.872;2023-05-10T10:13:40;15.00;99.90
39019;DHT22;24786;51.984;5.872;2023-05-10T10:16:06;15.00;99.90
39019;DHT22;24786;51.984;5.872;2023-05-10T10:18:32;14.90;99.90
39019;DHT22;24786;51.984;5.872;2023-05-10T10:20:58;14.90;99.90
39019;DHT22;24786;51.984;5.872;2023-05-10T10:23:24;14.90;99.90
39019;DHT22;24786;51.984;5.872;2023-05-10T10:25:49;14.90;99.90
39019;DHT22;24786;51.984;5.872;2023-05-10T10:28:23;14.90;99.90
39019;DHT22;24786;51.984;5.872;2023-05-10T10:30:49;14.90;99.90
39019;DHT22;24786;51.984;5.872;2023-05-10T10:36:01;14.90;99.90
39019;DHT22;24786;51.984;5.872;2023-05-10T10:41:28;15.20;99.90
39019;DHT22;24786;51.984;5.872;2023-05-10T10:49:22;15.50;99.90
39019;DHT22;24786;51.984;5.872;2023-05-10T10:54:32;15.50;99.90
39019;DHT22;24786;51.984;5.872;2023-05-10T10:57:11;15.40;99.90
39019;DHT22;24786;51.984;5.872;2023-05-10T10:59:41;15.30;99.90
39019;DHT22;24786;51.984;5.872;2023-05-10T11:02:07;15.40;99.90
39019;DHT22;24786;51.984;5.872;2023-05-10T11:04:41;15.30;99.90
39019;DHT22;24786;51.984;5.872;2023-05-10T11:07:16;15.30;99.90
39019;DHT22;24786;51.984;5.872;2023-05-10T11:09:41;15.30;99.90
39019;DHT22;24786;51.984;5.872;2023-05-10T11:12:10;15.30;99.90
39019;DHT22;24786;51.984;5.872;2023-05-10T11:14:35;15.40;99.90
39019;DHT22;24786;51.984;5.872;2023-05-10T11:17:01;15.40;99.90
39019;DHT22;24786;51.984;5.872;2023-05-10T11:19:29;15.70;99.90
39019;DHT22;24786;51.984;5.872;2023-05-10T11:24:29;15.80;99.90
39019;DHT22;24786;51.984;5.872;2023-05-10T11:26:55;16.00;99.90
39019;DHT22;24786;51.984;5.872;2023-05-10T11:29:21;16.10;99.90
39019;DHT22;24786;51.984;5.872;2023-05-10T11:31:47;16.10;99.90
39019;DHT22;24786;51.984;5.872;2023-05-10T11:34:29;16.20;99.90
39019;DHT22;24786;51.984;5.872;2023-05-10T11:37:00;16.30;99.90
39019;DHT22;24786;51.984;5.872;2023-05-10T11:39:26;16.40;99.90
39019;DHT22;24786;51.984;5.872;2023-05-10T11:41:52;16.30;99.90
39019;DHT22;24786;51.984;5.872;2023-05-10T11:44:18;16.30;99.90
39019;DHT22;24786;51.984;5.872;2023-05-10T11:46:43;16.40;99.90
39019;DHT22;24786;51.984;5.872;2023-05-10T11:49:09;16.40;99.90
39019;DHT22;24786;51.984;5.872;2023-05-10T11:51:35;16.60;99.90
39019;DHT22;24786;51.984;5.872;2023-05-10T11:54:07;16.50;99.90
39019;DHT22;24786;51.984;5.872;2023-05-10T11:56:34;16.60;99.90
39019;DHT22;24786;51.984;5.872;2023-05-10T11:59:00;16.70;99.90
39019;DHT22;24786;51.984;5.872;2023-05-10T12:01:27;16.70;99.90
39019;DHT22;24786;51.984;5.872;2023-05-10T12:03:54;16.70;99.90
39019;DHT22;24786;51.984;5.872;2023-05-10T12:06:20;16.80;99.90
39019;DHT22;24786;51.984;5.872;2023-05-10T12:08:46;16.90;99.90
39019;DHT22;24786;51.984;5.872;2023-05-10T12:11:12;17.00;99.90
39019;DHT22;24786;51.984;5.872;2023-05-10T12:13:41;17.10;99.90
39019;DHT22;24786;51.984;5.872;2023-05-10T12:16:14;17.20;99.90
39019;DHT22;24786;51.984;5.872;2023-05-10T12:18:40;17.20;99.90
39019;DHT22;24786;51.984;5.872;2023-05-10T12:21:09;17.30;99.90
39019;DHT22;24786;51.984;5.872;2023-05-10T12:23:34;17.50;99.90
39019;DHT22;24786;51.984;5.872;2023-05-10T12:26:03;17.40;99.90
39019;DHT22;24786;51.984;5.872;2023-05-10T12:28:32;17.40;99.90
39019;DHT22;24786;51.984;5.872;2023-05-10T12:30:58;17.40;99.90
39019;DHT22;24786;51.984;5.872;2023-05-10T12:33:24;17.40;99.90
39019;DHT22;24786;51.984;5.872;2023-05-10T12:35:51;17.30;99.90
39019;DHT22;24786;51.984;5.872;2023-05-10T12:38:27;17.40;99.90
39019;DHT22;24786;51.984;5.872;2023-05-10T12:40:55;17.40;99.90
39019;DHT22;24786;51.984;5.872;2023-05-10T12:43:20;17.40;99.90
39019;DHT22;24786;51.984;5.872;2023-05-10T12:45:46;17.40;99.90
39019;DHT22;24786;51.984;5.872;2023-05-10T12:48:14;17.40;99.90
39019;DHT22;24786;51.984;5.872;2023-05-10T12:50:39;17.40;99.90
39019;DHT22;24786;51.984;5.872;2023-05-10T12:53:05;17.50;99.90
39019;DHT22;24786;51.984;5.872;2023-05-10T12:55:30;17.50;99.90
39019;DHT22;24786;51.984;5.872;2023-05-10T12:57:56;17.50;99.90
39019;DHT22;24786;51.984;5.872;2023-05-10T13:00:21;17.50;99.90
39019;DHT22;24786;51.984;5.872;2023-05-10T13:02:47;17.60;99.90
39019;DHT22;24786;51.984;5.872;2023-05-10T13:05:12;17.60;99.90
39019;DHT22;24786;51.984;5.872;2023-05-10T13:07:38;17.70;99.90
39019;DHT22;24786;51.984;5.872;2023-05-10T13:10:04;17.70;99.90
39019;DHT22;24786;51.984;5.872;2023-05-10T13:12:30;17.70;99.90
39019;DHT22;24786;51.984;5.872;2023-05-10T13:14:56;17.70;99.90
39019;DHT22;24786;51.984;5.872;2023-05-10T13:17:21;17.70;99.90
39019;DHT22;24786;51.984;5.872;2023-05-10T13:19:47;17.60;99.90
39019;DHT22;24786;51.984;5.872;2023-05-10T13:22:12;17.50;99.90
39019;DHT22;24786;51.984;5.872;2023-05-10T13:24:38;17.40;99.90
39019;DHT22;24786;51.984;5.872;2023-05-10T13:27:03;17.40;99.90
39019;DHT22;24786;51.984;5.872;2023-05-10T13:29:28;17.30;99.90
39019;DHT22;24786;51.984;5.872;2023-05-10T13:31:54;17.20;99.90
39019;DHT22;24786;51.984;5.872;2023-05-10T13:34:19;17.20;99.90
39019;DHT22;24786;51.984;5.872;2023-05-10T13:36:46;17.20;99.90
39019;DHT22;24786;51.984;5.872;2023-05-10T13:39:11;17.20;99.90
39019;DHT22;24786;51.984;5.872;2023-05-10T13:41:37;17.20;99.90
39019;DHT22;24786;51.984;5.872;2023-05-10T13:44:03;17.20;99.90
39019;DHT22;24786;51.984;5.872;2023-05-10T13:46:29;17.10;99.90
39019;DHT22;24786;51.984;5.872;2023-05-10T13:48:55;17.10;99.90
39019;DHT22;24786;51.984;5.872;2023-05-10T13:51:20;17.00;99.90
39019;DHT22;24786;51.984;5.872;2023-05-10T13:53:46;16.80;99.90
39019;DHT22;24786;51.984;5.872;2023-05-10T13:56:12;16.80;99.90
39019;DHT22;24786;51.984;5.872;2023-05-10T13:58:38;16.70;99.90
39019;DHT22;24786;51.984;5.872;2023-05-10T14:01:03;16.60;99.90
39019;DHT22;24786;51.984;5.872;2023-05-10T14:03:30;16.40;99.90
39019;DHT22;24786;51.984;5.872;2023-05-10T14:05:55;16.40;99.90
39019;DHT22;24786;51.984;5.872;2023-05-10T14:08:21;16.30;99.90
39019;DHT22;24786;51.984;5.872;2023-05-10T14:10:46;16.20;99.90
39019;DHT22;24786;51.984;5.872;2023-05-10T14:13:12;16.10;99.90
39019;DHT22;24786;51.984;5.872;2023-05-10T14:15:38;16.10;99.90
39019;DHT22;24786;51.984;5.872;2023-05-10T14:18:03;16.00;99.90
39019;DHT22;24786;51.984;5.872;2023-05-10T14:20:28;16.00;99.90
39019;DHT22;24786;51.984;5.872;2023-05-10T14:22:54;16.00;99.90
39019;DHT22;24786;51.984;5.872;2023-05-10T14:25:19;16.10;99.90
39019;DHT22;24786;51.984;5.872;2023-05-10T14:27:45;16.10;99.90
39019;DHT22;24786;51.984;5.872;2023-05-10T14:30:11;16.10;99.90
39019;DHT22;24786;51.984;5.872;2023-05-10T14:32:36;16.10;99.90
39019;DHT22;24786;51.984;5.872;2023-05-10T14:35:02;16.10;99.90
39019;DHT22;24786;51.984;5.872;2023-05-10T14:37:28;16.10;99.90
39019;DHT22;24786;51.984;5.872;2023-05-10T14:39:53;16.10;99.90
39019;DHT22;24786;51.984;5.872;2023-05-10T14:42:19;16.10;99.90
39019;DHT22;24786;51.984;5.872;2023-05-10T14:44:44;16.00;99.90
39019;DHT22;24786;51.984;5.872;2023-05-10T14:47:10;16.00;99.90
39019;DHT22;24786;51.984;5.872;2023-05-10T14:49:36;15.90;99.90
39019;DHT22;24786;51.984;5.872;2023-05-10T14:52:02;15.90;99.90
39019;DHT22;24786;51.984;5.872;2023-05-10T14:54:28;15.80;99.90
39019;DHT22;24786;51.984;5.872;2023-05-10T14:56:53;15.80;99.90
39019;DHT22;24786;51.984;5.872;2023-05-10T14:59:20;15.70;99.90
39019;DHT22;24786;51.984;5.872;2023-05-10T15:01:45;15.80;99.90
39019;DHT22;24786;51.984;5.872;2023-05-10T15:04:11;15.80;99.90
39019;DHT22;24786;51.984;5.872;2023-05-10T15:06:38;15.90;99.90
39019;DHT22;24786;51.984;5.872;2023-05-10T15:09:03;16.10;99.90
39019;DHT22;24786;51.984;5.872;2023-05-10T15:11:29;16.20;99.90
39019;DHT22;24786;51.984;5.872;2023-05-10T15:13:55;16.30;99.90
39019;DHT22;24786;51.984;5.872;2023-05-10T15:16:20;16.40;99.90
39019;DHT22;24786;51.984;5.872;2023-05-10T15:18:46;16.40;99.90
39019;DHT22;24786;51.984;5.872;2023-05-10T15:21:11;16.30;99.90
39019;DHT22;24786;51.984;5.872;2023-05-10T15:23:37;16.30;99.90
39019;DHT22;24786;51.984;5.872;2023-05-10T15:26:03;16.30;99.90
39019;DHT22;24786;51.984;5.872;2023-05-10T15:28:28;16.30;99.90
39019;DHT22;24786;51.984;5.872;2023-05-10T15:30:54;16.20;99.90
39019;DHT22;24786;51.984;5.872;2023-05-10T15:33:20;16.20;99.90
39019;DHT22;24786;51.984;5.872;2023-05-10T15:35:45;16.20;99.90
39019;DHT22;24786;51.984;5.872;2023-05-10T15:38:11;16.10;99.90
39019;DHT22;24786;51.984;5.872;2023-05-10T15:40:39;16.20;99.90
39019;DHT22;24786;51.984;5.872;2023-05-10T15:43:07;16.20;99.90
39019;DHT22;24786;51.984;5.872;2023-05-10T15:45:33;16.20;99.90
39019;DHT22;24786;51.984;5.872;2023-05-10T15:47:58;16.10;99.90
39019;DHT22;24786;51.984;5.872;2023-05-10T15:50:26;16.10;99.90
39019;DHT22;24786;51.984;5.872;2023-05-10T15:52:52;16.00;99.90
39019;DHT22;24786;51.984;5.872;2023-05-10T15:55:21;16.00;99.90
39019;DHT22;24786;51.984;5.872;2023-05-10T15:57:46;16.00;99.90
39019;DHT22;24786;51.984;5.872;2023-05-10T16:00:13;16.00;99.90
39019;DHT22;24786;51.984;5.872;2023-05-10T16:02:39;16.00;99.90
39019;DHT22;24786;51.984;5.872;2023-05-10T16:05:04;16.10;99.90